sensor_id;sensor_type;location;lat;lon;timestamp;P1;durP1;ratioP1;P2;durP2;ratioP2
69152;SDS011;56261;51.580;4.578;2022-11-15T00:00:24;11.07;;;5.87;;
69152;SDS011;56261;51.580;4.578;2022-11-15T00:02:51;4.90;;;2.77;;
69152;SDS011;56261;51.580;4.578;2022-11-15T00:05:17;28.30;;;7.40;;
69152;SDS011;56261;51.580;4.578;2022-11-15T00:07:42;19.00;;;7.70;;
69152;SDS011;56261;51.580;4.578;2022-11-15T00:10:08;8.00;;;3.80;;
69152;SDS011;56261;51.580;4.578;2022-11-15T00:12:33;25.03;;;7.70;;
69152;SDS011;56261;51.580;4.578;2022-11-15T00:14:59;24.10;;;10.27;;
69152;SDS011;56261;51.580;4.578;2022-11-15T00:17:24;19.60;;;8.03;;
69152;SDS011;56261;51.580;4.578;2022-11-15T00:19:49;6.30;;;4.43;;
69152;SDS011;56261;51.580;4.578;2022-11-15T00:22:15;4.93;;;2.60;;
69152;SDS011;56261;51.580;4.578;2022-11-15T00:24:40;17.90;;;7.00;;
69152;SDS011;56261;51.580;4.578;2022-11-15T00:27:05;5.80;;;3.70;;
69152;SDS011;56261;51.580;4.578;2022-11-15T00:29:31;14.77;;;4.27;;
69152;SDS011;56261;51.580;4.578;2022-11-15T00:31:56;6.37;;;4.57;;
69152;SDS011;56261;51.580;4.578;2022-11-15T00:34:21;10.87;;;4.00;;
69152;SDS011;56261;51.580;4.578;2022-11-15T00:36:47;7.73;;;5.27;;
69152;SDS011;56261;51.580;4.578;2022-11-15T00:39:12;5.67;;;2.00;;
69152;SDS011;56261;51.580;4.578;2022-11-15T00:41:37;11.47;;;5.60;;
69152;SDS011;56261;51.580;4.578;2022-11-15T00:44:03;27.57;;;9.13;;
69152;SDS011;56261;51.580;4.578;2022-11-15T00:46:28;2.07;;;0.93;;
69152;SDS011;56261;51.580;4.578;2022-11-15T00:48:54;11.03;;;6.00;;
69152;SDS011;56261;51.580;4.578;2022-11-15T00:51:19;9.73;;;4.47;;
69152;SDS011;56261;51.580;4.578;2022-11-15T00:53:45;11.40;;;4.83;;
69152;SDS011;56261;51.580;4.578;2022-11-15T00:56:10;11.07;;;4.57;;
69152;SDS011;56261;51.580;4.578;2022-11-15T00:58:35;8.40;;;3.80;;
69152;SDS011;56261;51.580;4.578;2022-11-15T01:01:10;16.60;;;7.33;;
69152;SDS011;56261;51.580;4.578;2022-11-15T01:03:38;16.90;;;9.00;;
69152;SDS011;56261;51.580;4.578;2022-11-15T01:06:05;6.43;;;3.13;;
69152;SDS011;56261;51.580;4.578;2022-11-15T01:08:30;8.50;;;5.47;;
69152;SDS011;56261;51.580;4.578;2022-11-15T01:11:06;7.83;;;3.27;;
69152;SDS011;56261;51.580;4.578;2022-11-15T01:13:34;13.15;;;5.28;;
69152;SDS011;56261;51.580;4.578;2022-11-15T01:16:07;7.95;;;3.72;;
69152;SDS011;56261;51.580;4.578;2022-11-15T01:18:34;6.90;;;2.87;;
69152;SDS011;56261;51.580;4.578;2022-11-15T01:21:04;17.73;;;4.55;;
69152;SDS011;56261;51.580;4.578;2022-11-15T01:23:30;10.45;;;4.00;;
69152;SDS011;56261;51.580;4.578;2022-11-15T01:25:59;14.30;;;6.63;;
69152;SDS011;56261;51.580;4.578;2022-11-15T01:28:29;7.53;;;4.10;;
69152;SDS011;56261;51.580;4.578;2022-11-15T01:30:59;8.20;;;3.40;;
69152;SDS011;56261;51.580;4.578;2022-11-15T01:33:25;13.07;;;7.57;;
69152;SDS011;56261;51.580;4.578;2022-11-15T01:35:51;7.10;;;3.80;;
69152;SDS011;56261;51.580;4.578;2022-11-15T01:38:16;5.10;;;2.97;;
69152;SDS011;56261;51.580;4.578;2022-11-15T01:40:41;6.10;;;3.27;;
69152;SDS011;56261;51.580;4.578;2022-11-15T01:45:45;3.97;;;1.38;;
69152;SDS011;56261;51.580;4.578;2022-11-15T01:48:15;3.53;;;2.05;;
69152;SDS011;56261;51.580;4.578;2022-11-15T01:50:40;9.47;;;5.00;;
69152;SDS011;56261;51.580;4.578;2022-11-15T01:53:05;5.17;;;2.93;;
69152;SDS011;56261;51.580;4.578;2022-11-15T01:55:31;9.00;;;3.83;;
69152;SDS011;56261;51.580;4.578;2022-11-15T01:57:58;4.80;;;2.88;;
69152;SDS011;56261;51.580;4.578;2022-11-15T02:00:27;12.90;;;5.72;;
69152;SDS011;56261;51.580;4.578;2022-11-15T02:02:54;10.10;;;5.45;;
69152;SDS011;56261;51.580;4.578;2022-11-15T02:05:19;8.63;;;4.45;;
69152;SDS011;56261;51.580;4.578;2022-11-15T02:07:45;4.47;;;2.97;;
69152;SDS011;56261;51.580;4.578;2022-11-15T02:10:19;7.93;;;3.55;;
69152;SDS011;56261;51.580;4.578;2022-11-15T02:12:47;4.03;;;2.70;;
69152;SDS011;56261;51.580;4.578;2022-11-15T02:15:13;3.20;;;2.00;;
69152;SDS011;56261;51.580;4.578;2022-11-15T02:17:48;7.67;;;4.33;;
69152;SDS011;56261;51.580;4.578;2022-11-15T02:29:15;8.23;;;2.65;;
69152;SDS011;56261;51.580;4.578;2022-11-15T02:32:10;1.60;;;0.50;;
69152;SDS011;56261;51.580;4.578;2022-11-15T02:38:06;3.17;;;1.55;;
69152;SDS011;56261;51.580;4.578;2022-11-15T02:49:13;3.40;;;2.08;;
69152;SDS011;56261;51.580;4.578;2022-11-15T02:51:40;2.78;;;1.40;;
69152;SDS011;56261;51.580;4.578;2022-11-15T02:54:10;6.65;;;4.20;;
69152;SDS011;56261;51.580;4.578;2022-11-15T02:56:43;2.95;;;1.67;;
69152;SDS011;56261;51.580;4.578;2022-11-15T02:59:18;8.30;;;4.13;;
69152;SDS011;56261;51.580;4.578;2022-11-15T03:13:14;2.10;;;0.80;;
69152;SDS011;56261;51.580;4.578;2022-11-15T03:15:43;7.53;;;3.72;;
69152;SDS011;56261;51.580;4.578;2022-11-15T03:18:32;13.93;;;5.40;;
69152;SDS011;56261;51.580;4.578;2022-11-15T03:21:01;2.00;;;0.50;;
69152;SDS011;56261;51.580;4.578;2022-11-15T03:23:29;2.45;;;1.30;;
69152;SDS011;56261;51.580;4.578;2022-11-15T03:25:56;1.70;;;0.60;;
69152;SDS011;56261;51.580;4.578;2022-11-15T03:28:38;4.55;;;1.67;;
69152;SDS011;56261;51.580;4.578;2022-11-15T03:31:07;6.85;;;2.50;;
69152;SDS011;56261;51.580;4.578;2022-11-15T03:33:55;3.35;;;1.20;;
69152;SDS011;56261;51.580;4.578;2022-11-15T03:36:24;9.40;;;2.67;;
69152;SDS011;56261;51.580;4.578;2022-11-15T03:38:53;2.63;;;0.87;;
69152;SDS011;56261;51.580;4.578;2022-11-15T03:41:33;2.40;;;1.02;;
69152;SDS011;56261;51.580;4.578;2022-11-15T03:44:20;2.00;;;0.75;;
69152;SDS011;56261;51.580;4.578;2022-11-15T03:46:55;4.38;;;2.28;;
69152;SDS011;56261;51.580;4.578;2022-11-15T03:49:38;12.50;;;1.88;;
69152;SDS011;56261;51.580;4.578;2022-11-15T03:52:09;5.90;;;2.47;;
69152;SDS011;56261;51.580;4.578;2022-11-15T03:54:36;4.07;;;1.88;;
69152;SDS011;56261;51.580;4.578;2022-11-15T03:57:02;3.17;;;2.17;;
69152;SDS011;56261;51.580;4.578;2022-11-15T03:59:27;1.90;;;0.60;;
69152;SDS011;56261;51.580;4.578;2022-11-15T04:01:52;4.33;;;2.70;;
69152;SDS011;56261;51.580;4.578;2022-11-15T04:04:18;4.80;;;2.53;;
69152;SDS011;56261;51.580;4.578;2022-11-15T04:06:43;9.02;;;3.55;;
69152;SDS011;56261;51.580;4.578;2022-11-15T04:09:09;7.13;;;3.63;;
69152;SDS011;56261;51.580;4.578;2022-11-15T04:11:34;5.40;;;2.30;;
69152;SDS011;56261;51.580;4.578;2022-11-15T04:13:59;3.60;;;1.63;;
69152;SDS011;56261;51.580;4.578;2022-11-15T04:16:28;4.17;;;1.00;;
69152;SDS011;56261;51.580;4.578;2022-11-15T04:18:53;2.20;;;0.90;;
69152;SDS011;56261;51.580;4.578;2022-11-15T04:21:37;5.20;;;2.00;;
69152;SDS011;56261;51.580;4.578;2022-11-15T04:24:21;2.60;;;1.15;;
69152;SDS011;56261;51.580;4.578;2022-11-15T04:26:46;2.43;;;0.90;;
69152;SDS011;56261;51.580;4.578;2022-11-15T04:29:12;14.53;;;6.80;;
69152;SDS011;56261;51.580;4.578;2022-11-15T04:31:56;11.80;;;1.50;;
69152;SDS011;56261;51.580;4.578;2022-11-15T04:34:21;5.67;;;2.63;;
69152;SDS011;56261;51.580;4.578;2022-11-15T04:36:46;5.10;;;2.20;;
69152;SDS011;56261;51.580;4.578;2022-11-15T04:39:30;6.43;;;2.72;;
69152;SDS011;56261;51.580;4.578;2022-11-15T04:41:56;8.53;;;3.60;;
69152;SDS011;56261;51.580;4.578;2022-11-15T04:44:21;2.92;;;1.50;;
69152;SDS011;56261;51.580;4.578;2022-11-15T04:46:46;4.70;;;1.97;;
69152;SDS011;56261;51.580;4.578;2022-11-15T04:49:11;2.90;;;1.23;;
69152;SDS011;56261;51.580;4.578;2022-11-15T04:51:37;14.60;;;3.47;;
69152;SDS011;56261;51.580;4.578;2022-11-15T04:54:02;8.13;;;2.67;;
69152;SDS011;56261;51.580;4.578;2022-11-15T04:56:28;4.70;;;1.90;;
69152;SDS011;56261;51.580;4.578;2022-11-15T04:58:53;1.53;;;0.40;;
69152;SDS011;56261;51.580;4.578;2022-11-15T05:01:18;3.90;;;1.80;;
69152;SDS011;56261;51.580;4.578;2022-11-15T05:03:44;4.97;;;2.03;;
69152;SDS011;56261;51.580;4.578;2022-11-15T05:06:28;1.95;;;0.73;;
69152;SDS011;56261;51.580;4.578;2022-11-15T05:08:54;2.40;;;0.97;;
69152;SDS011;56261;51.580;4.578;2022-11-15T05:11:20;2.70;;;1.05;;
69152;SDS011;56261;51.580;4.578;2022-11-15T05:13:46;5.05;;;1.70;;
69152;SDS011;56261;51.580;4.578;2022-11-15T05:16:11;8.53;;;2.07;;
69152;SDS011;56261;51.580;4.578;2022-11-15T05:18:37;3.73;;;2.03;;
69152;SDS011;56261;51.580;4.578;2022-11-15T05:21:09;6.68;;;1.77;;
69152;SDS011;56261;51.580;4.578;2022-11-15T05:23:37;3.10;;;1.55;;
69152;SDS011;56261;51.580;4.578;2022-11-15T05:26:03;3.17;;;1.55;;
69152;SDS011;56261;51.580;4.578;2022-11-15T05:28:30;4.50;;;2.10;;
69152;SDS011;56261;51.580;4.578;2022-11-15T05:31:02;2.10;;;0.55;;
69152;SDS011;56261;51.580;4.578;2022-11-15T05:33:29;2.78;;;1.08;;
69152;SDS011;56261;51.580;4.578;2022-11-15T05:35:57;3.53;;;2.03;;
69152;SDS011;56261;51.580;4.578;2022-11-15T05:38:30;1.70;;;0.40;;
69152;SDS011;56261;51.580;4.578;2022-11-15T05:40:55;2.93;;;1.53;;
69152;SDS011;56261;51.580;4.578;2022-11-15T05:43:21;3.83;;;1.70;;
69152;SDS011;56261;51.580;4.578;2022-11-15T05:45:47;3.72;;;1.70;;
69152;SDS011;56261;51.580;4.578;2022-11-15T05:48:12;2.90;;;1.07;;
69152;SDS011;56261;51.580;4.578;2022-11-15T05:50:38;2.85;;;1.63;;
69152;SDS011;56261;51.580;4.578;2022-11-15T05:53:09;4.70;;;0.98;;
69152;SDS011;56261;51.580;4.578;2022-11-15T05:55:38;3.03;;;1.25;;
69152;SDS011;56261;51.580;4.578;2022-11-15T05:58:04;1.90;;;0.70;;
69152;SDS011;56261;51.580;4.578;2022-11-15T06:00:30;9.35;;;2.38;;
69152;SDS011;56261;51.580;4.578;2022-11-15T06:02:55;2.23;;;1.20;;
69152;SDS011;56261;51.580;4.578;2022-11-15T06:05:21;2.07;;;0.87;;
69152;SDS011;56261;51.580;4.578;2022-11-15T06:07:46;1.50;;;0.30;;
69152;SDS011;56261;51.580;4.578;2022-11-15T06:10:12;2.00;;;0.77;;
69152;SDS011;56261;51.580;4.578;2022-11-15T06:12:37;1.77;;;0.50;;
69152;SDS011;56261;51.580;4.578;2022-11-15T06:15:02;4.73;;;3.27;;
69152;SDS011;56261;51.580;4.578;2022-11-15T06:17:28;2.27;;;0.70;;
69152;SDS011;56261;51.580;4.578;2022-11-15T06:19:53;4.63;;;1.75;;
69152;SDS011;56261;51.580;4.578;2022-11-15T06:22:19;1.67;;;0.40;;
69152;SDS011;56261;51.580;4.578;2022-11-15T06:24:44;1.83;;;0.50;;
69152;SDS011;56261;51.580;4.578;2022-11-15T06:27:10;1.90;;;0.60;;
69152;SDS011;56261;51.580;4.578;2022-11-15T06:29:36;5.75;;;3.58;;
69152;SDS011;56261;51.580;4.578;2022-11-15T06:32:01;7.00;;;0.73;;
69152;SDS011;56261;51.580;4.578;2022-11-15T06:34:27;2.17;;;0.77;;
69152;SDS011;56261;51.580;4.578;2022-11-15T06:36:52;3.37;;;0.87;;
69152;SDS011;56261;51.580;4.578;2022-11-15T06:39:17;2.87;;;0.90;;
69152;SDS011;56261;51.580;4.578;2022-11-15T06:41:43;2.40;;;1.00;;
69152;SDS011;56261;51.580;4.578;2022-11-15T06:44:08;1.73;;;0.40;;
69152;SDS011;56261;51.580;4.578;2022-11-15T06:46:34;2.90;;;1.10;;
69152;SDS011;56261;51.580;4.578;2022-11-15T06:48:59;8.10;;;1.48;;
69152;SDS011;56261;51.580;4.578;2022-11-15T06:51:24;6.03;;;2.23;;
69152;SDS011;56261;51.580;4.578;2022-11-15T06:53:50;2.40;;;0.90;;
69152;SDS011;56261;51.580;4.578;2022-11-15T06:56:15;4.53;;;1.67;;
69152;SDS011;56261;51.580;4.578;2022-11-15T06:58:41;4.40;;;1.70;;
69152;SDS011;56261;51.580;4.578;2022-11-15T07:01:07;2.08;;;0.75;;
69152;SDS011;56261;51.580;4.578;2022-11-15T07:03:35;2.97;;;1.37;;
69152;SDS011;56261;51.580;4.578;2022-11-15T07:06:02;5.40;;;2.20;;
69152;SDS011;56261;51.580;4.578;2022-11-15T07:08:28;2.97;;;1.67;;
69152;SDS011;56261;51.580;4.578;2022-11-15T07:10:54;4.88;;;1.27;;
69152;SDS011;56261;51.580;4.578;2022-11-15T07:13:26;5.05;;;1.80;;
69152;SDS011;56261;51.580;4.578;2022-11-15T07:15:52;2.47;;;1.25;;
69152;SDS011;56261;51.580;4.578;2022-11-15T07:18:18;3.43;;;1.60;;
69152;SDS011;56261;51.580;4.578;2022-11-15T07:20:43;2.13;;;0.63;;
69152;SDS011;56261;51.580;4.578;2022-11-15T07:23:08;5.63;;;1.67;;
69152;SDS011;56261;51.580;4.578;2022-11-15T07:25:34;4.23;;;1.57;;
69152;SDS011;56261;51.580;4.578;2022-11-15T07:28:00;2.63;;;1.07;;
69152;SDS011;56261;51.580;4.578;2022-11-15T07:30:28;5.65;;;2.28;;
69152;SDS011;56261;51.580;4.578;2022-11-15T07:35:20;3.15;;;1.40;;
69152;SDS011;56261;51.580;4.578;2022-11-15T07:37:56;2.37;;;0.80;;
69152;SDS011;56261;51.580;4.578;2022-11-15T07:40:22;2.97;;;1.30;;
69152;SDS011;56261;51.580;4.578;2022-11-15T07:42:48;3.00;;;1.53;;
69152;SDS011;56261;51.580;4.578;2022-11-15T07:45:21;2.70;;;0.82;;
69152;SDS011;56261;51.580;4.578;2022-11-15T07:47:49;4.10;;;1.70;;
69152;SDS011;56261;51.580;4.578;2022-11-15T07:50:15;2.10;;;0.68;;
69152;SDS011;56261;51.580;4.578;2022-11-15T07:52:41;2.38;;;0.73;;
69152;SDS011;56261;51.580;4.578;2022-11-15T07:55:07;3.03;;;0.70;;
69152;SDS011;56261;51.580;4.578;2022-11-15T07:57:32;4.03;;;1.33;;
69152;SDS011;56261;51.580;4.578;2022-11-15T07:59:58;2.90;;;1.33;;
69152;SDS011;56261;51.580;4.578;2022-11-15T08:02:23;3.20;;;1.40;;
69152;SDS011;56261;51.580;4.578;2022-11-15T08:04:48;9.40;;;2.40;;
69152;SDS011;56261;51.580;4.578;2022-11-15T08:07:14;3.63;;;1.63;;
69152;SDS011;56261;51.580;4.578;2022-11-15T08:09:39;2.70;;;0.80;;
69152;SDS011;56261;51.580;4.578;2022-11-15T08:12:04;7.17;;;2.53;;
69152;SDS011;56261;51.580;4.578;2022-11-15T08:14:30;4.93;;;2.15;;
69152;SDS011;56261;51.580;4.578;2022-11-15T08:16:56;3.50;;;1.37;;
69152;SDS011;56261;51.580;4.578;2022-11-15T08:19:21;4.07;;;1.93;;
69152;SDS011;56261;51.580;4.578;2022-11-15T08:21:47;2.05;;;0.85;;
69152;SDS011;56261;51.580;4.578;2022-11-15T08:24:12;7.67;;;3.10;;
69152;SDS011;56261;51.580;4.578;2022-11-15T08:26:38;5.20;;;2.20;;
69152;SDS011;56261;51.580;4.578;2022-11-15T08:29:04;7.30;;;3.13;;
69152;SDS011;56261;51.580;4.578;2022-11-15T08:31:30;13.07;;;3.65;;
69152;SDS011;56261;51.580;4.578;2022-11-15T08:33:55;5.27;;;2.60;;
69152;SDS011;56261;51.580;4.578;2022-11-15T08:36:21;5.67;;;2.27;;
69152;SDS011;56261;51.580;4.578;2022-11-15T08:38:46;5.37;;;2.30;;
69152;SDS011;56261;51.580;4.578;2022-11-15T08:43:56;7.30;;;2.93;;
69152;SDS011;56261;51.580;4.578;2022-11-15T08:46:23;3.40;;;1.17;;
69152;SDS011;56261;51.580;4.578;2022-11-15T08:48:48;2.58;;;0.95;;
69152;SDS011;56261;51.580;4.578;2022-11-15T08:51:14;5.77;;;2.40;;
69152;SDS011;56261;51.580;4.578;2022-11-15T08:53:39;8.70;;;1.43;;
69152;SDS011;56261;51.580;4.578;2022-11-15T08:56:12;5.80;;;2.13;;
69152;SDS011;56261;51.580;4.578;2022-11-15T08:58:39;3.70;;;1.40;;
69152;SDS011;56261;51.580;4.578;2022-11-15T09:01:04;5.80;;;2.70;;
69152;SDS011;56261;51.580;4.578;2022-11-15T09:03:30;2.88;;;1.08;;
69152;SDS011;56261;51.580;4.578;2022-11-15T09:05:59;6.40;;;2.37;;
69152;SDS011;56261;51.580;4.578;2022-11-15T09:08:28;4.70;;;1.67;;
69152;SDS011;56261;51.580;4.578;2022-11-15T09:10:54;6.85;;;1.83;;
69152;SDS011;56261;51.580;4.578;2022-11-15T09:13:20;5.68;;;1.83;;
69152;SDS011;56261;51.580;4.578;2022-11-15T09:15:46;2.33;;;0.70;;
69152;SDS011;56261;51.580;4.578;2022-11-15T09:18:12;4.23;;;1.50;;
69152;SDS011;56261;51.580;4.578;2022-11-15T09:20:37;6.10;;;1.73;;
69152;SDS011;56261;51.580;4.578;2022-11-15T09:23:03;4.67;;;1.23;;
69152;SDS011;56261;51.580;4.578;2022-11-15T09:25:29;9.35;;;3.03;;
69152;SDS011;56261;51.580;4.578;2022-11-15T09:27:55;5.27;;;1.70;;
69152;SDS011;56261;51.580;4.578;2022-11-15T09:30:22;3.40;;;1.33;;
69152;SDS011;56261;51.580;4.578;2022-11-15T09:32:49;4.05;;;1.58;;
69152;SDS011;56261;51.580;4.578;2022-11-15T09:35:14;2.17;;;0.90;;
69152;SDS011;56261;51.580;4.578;2022-11-15T09:37:40;3.38;;;1.10;;
69152;SDS011;56261;51.580;4.578;2022-11-15T09:40:05;3.57;;;1.30;;
69152;SDS011;56261;51.580;4.578;2022-11-15T09:51:06;4.65;;;1.75;;
69152;SDS011;56261;51.580;4.578;2022-11-15T09:53:56;3.70;;;1.73;;
69152;SDS011;56261;51.580;4.578;2022-11-15T09:56:26;4.97;;;1.43;;
69152;SDS011;56261;51.580;4.578;2022-11-15T09:58:59;5.60;;;1.73;;
69152;SDS011;56261;51.580;4.578;2022-11-15T10:01:49;2.83;;;0.73;;
69152;SDS011;56261;51.580;4.578;2022-11-15T10:04:19;7.50;;;1.70;;
69152;SDS011;56261;51.580;4.578;2022-11-15T10:06:48;3.20;;;1.10;;
69152;SDS011;56261;51.580;4.578;2022-11-15T10:09:20;2.83;;;0.80;;
69152;SDS011;56261;51.580;4.578;2022-11-15T10:11:54;2.65;;;0.95;;
69152;SDS011;56261;51.580;4.578;2022-11-15T10:14:20;3.80;;;1.08;;
69152;SDS011;56261;51.580;4.578;2022-11-15T10:16:57;4.00;;;1.10;;
69152;SDS011;56261;51.580;4.578;2022-11-15T10:22:38;3.10;;;1.08;;
69152;SDS011;56261;51.580;4.578;2022-11-15T10:27:54;4.18;;;1.75;;
69152;SDS011;56261;51.580;4.578;2022-11-15T10:30:21;2.90;;;1.00;;
69152;SDS011;56261;51.580;4.578;2022-11-15T10:32:48;3.17;;;0.90;;
69152;SDS011;56261;51.580;4.578;2022-11-15T10:35:24;4.13;;;1.13;;
69152;SDS011;56261;51.580;4.578;2022-11-15T10:37:52;7.03;;;1.48;;
69152;SDS011;56261;51.580;4.578;2022-11-15T10:40:29;2.50;;;0.70;;
69152;SDS011;56261;51.580;4.578;2022-11-15T10:43:05;3.13;;;0.70;;
69152;SDS011;56261;51.580;4.578;2022-11-15T10:45:39;3.28;;;0.70;;
69152;SDS011;56261;51.580;4.578;2022-11-15T10:50:43;4.72;;;1.00;;
69152;SDS011;56261;51.580;4.578;2022-11-15T10:53:32;3.72;;;1.05;;
69152;SDS011;56261;51.580;4.578;2022-11-15T10:56:05;8.25;;;0.88;;
69152;SDS011;56261;51.580;4.578;2022-11-15T10:58:37;3.90;;;0.83;;
69152;SDS011;56261;51.580;4.578;2022-11-15T11:01:16;2.17;;;0.60;;
69152;SDS011;56261;51.580;4.578;2022-11-15T11:03:44;2.83;;;0.47;;
69152;SDS011;56261;51.580;4.578;2022-11-15T11:06:23;2.00;;;0.60;;
69152;SDS011;56261;51.580;4.578;2022-11-15T11:08:55;3.93;;;0.80;;
69152;SDS011;56261;51.580;4.578;2022-11-15T11:11:24;1.92;;;0.52;;
69152;SDS011;56261;51.580;4.578;2022-11-15T11:13:50;5.35;;;0.90;;
69152;SDS011;56261;51.580;4.578;2022-11-15T11:16:38;2.00;;;0.60;;
69152;SDS011;56261;51.580;4.578;2022-11-15T11:30:06;3.20;;;0.95;;
69152;SDS011;56261;51.580;4.578;2022-11-15T11:32:56;2.45;;;1.25;;
69152;SDS011;56261;51.580;4.578;2022-11-15T11:35:32;2.97;;;0.97;;
69152;SDS011;56261;51.580;4.578;2022-11-15T11:46:27;3.83;;;0.70;;
69152;SDS011;56261;51.580;4.578;2022-11-15T11:49:43;3.63;;;1.00;;
69152;SDS011;56261;51.580;4.578;2022-11-15T11:52:02;16.23;;;0.98;;
69152;SDS011;56261;51.580;4.578;2022-11-15T11:54:38;5.90;;;1.10;;
69152;SDS011;56261;51.580;4.578;2022-11-15T11:57:05;2.35;;;0.70;;
69152;SDS011;56261;51.580;4.578;2022-11-15T11:59:48;2.55;;;0.70;;
69152;SDS011;56261;51.580;4.578;2022-11-15T12:04:52;4.93;;;0.77;;
69152;SDS011;56261;51.580;4.578;2022-11-15T12:07:31;6.00;;;0.90;;
69152;SDS011;56261;51.580;4.578;2022-11-15T12:09:59;2.58;;;0.80;;
69152;SDS011;56261;51.580;4.578;2022-11-15T12:17:34;2.30;;;0.70;;
69152;SDS011;56261;51.580;4.578;2022-11-15T12:20:13;3.13;;;0.70;;
69152;SDS011;56261;51.580;4.578;2022-11-15T12:22:44;3.75;;;0.63;;
69152;SDS011;56261;51.580;4.578;2022-11-15T12:25:18;2.70;;;0.93;;
69152;SDS011;56261;51.580;4.578;2022-11-15T12:27:50;4.22;;;0.95;;
69152;SDS011;56261;51.580;4.578;2022-11-15T12:30:22;3.33;;;1.27;;
69152;SDS011;56261;51.580;4.578;2022-11-15T12:32:51;1.77;;;0.50;;
69152;SDS011;56261;51.580;4.578;2022-11-15T12:37:57;2.75;;;0.98;;
69152;SDS011;56261;51.580;4.578;2022-11-15T12:40:23;9.00;;;0.90;;
69152;SDS011;56261;51.580;4.578;2022-11-15T12:42:57;2.65;;;0.80;;
69152;SDS011;56261;51.580;4.578;2022-11-15T12:58:48;2.80;;;0.68;;
69152;SDS011;56261;51.580;4.578;2022-11-15T13:12:03;4.07;;;0.82;;
69152;SDS011;56261;51.580;4.578;2022-11-15T13:19:48;2.53;;;0.63;;
69152;SDS011;56261;51.580;4.578;2022-11-15T13:22:18;2.50;;;0.80;;
69152;SDS011;56261;51.580;4.578;2022-11-15T13:25:02;3.65;;;0.90;;
69152;SDS011;56261;51.580;4.578;2022-11-15T13:27:27;2.80;;;0.85;;
69152;SDS011;56261;51.580;4.578;2022-11-15T13:29:53;1.90;;;0.53;;
69152;SDS011;56261;51.580;4.578;2022-11-15T13:32:19;2.38;;;0.70;;
69152;SDS011;56261;51.580;4.578;2022-11-15T13:34:46;2.63;;;0.73;;
69152;SDS011;56261;51.580;4.578;2022-11-15T13:39:44;3.72;;;0.82;;
69152;SDS011;56261;51.580;4.578;2022-11-15T13:42:14;2.37;;;0.80;;
69152;SDS011;56261;51.580;4.578;2022-11-15T13:44:40;14.40;;;0.82;;
69152;SDS011;56261;51.580;4.578;2022-11-15T13:47:20;3.83;;;1.05;;
69152;SDS011;56261;51.580;4.578;2022-11-15T13:49:45;1.80;;;0.50;;
69152;SDS011;56261;51.580;4.578;2022-11-15T13:52:12;2.07;;;0.50;;
69152;SDS011;56261;51.580;4.578;2022-11-15T13:54:43;3.25;;;0.70;;
69152;SDS011;56261;51.580;4.578;2022-11-15T14:02:21;2.20;;;0.50;;
69152;SDS011;56261;51.580;4.578;2022-11-15T14:04:52;3.40;;;0.83;;
69152;SDS011;56261;51.580;4.578;2022-11-15T14:07:21;2.40;;;0.70;;
69152;SDS011;56261;51.580;4.578;2022-11-15T14:09:48;3.60;;;1.02;;
69152;SDS011;56261;51.580;4.578;2022-11-15T14:12:24;1.83;;;0.50;;
69152;SDS011;56261;51.580;4.578;2022-11-15T14:14:49;3.70;;;0.98;;
69152;SDS011;56261;51.580;4.578;2022-11-15T14:19:53;3.57;;;1.30;;
69152;SDS011;56261;51.580;4.578;2022-11-15T14:22:22;2.40;;;0.73;;
69152;SDS011;56261;51.580;4.578;2022-11-15T14:27:38;3.05;;;0.63;;
69152;SDS011;56261;51.580;4.578;2022-11-15T14:30:03;3.15;;;1.10;;
69152;SDS011;56261;51.580;4.578;2022-11-15T14:32:37;3.08;;;0.80;;
69152;SDS011;56261;51.580;4.578;2022-11-15T14:35:23;2.47;;;0.85;;
69152;SDS011;56261;51.580;4.578;2022-11-15T14:37:49;8.37;;;1.77;;
69152;SDS011;56261;51.580;4.578;2022-11-15T14:40:18;5.95;;;1.13;;
69152;SDS011;56261;51.580;4.578;2022-11-15T14:42:46;2.65;;;1.02;;
69152;SDS011;56261;51.580;4.578;2022-11-15T14:45:17;4.30;;;1.10;;
69152;SDS011;56261;51.580;4.578;2022-11-15T14:47:44;3.97;;;0.75;;
69152;SDS011;56261;51.580;4.578;2022-11-15T14:50:11;2.30;;;0.70;;
69152;SDS011;56261;51.580;4.578;2022-11-15T14:52:41;2.72;;;0.88;;
69152;SDS011;56261;51.580;4.578;2022-11-15T14:57:42;3.03;;;1.02;;
69152;SDS011;56261;51.580;4.578;2022-11-15T15:00:07;1.70;;;0.40;;
69152;SDS011;56261;51.580;4.578;2022-11-15T15:02:34;2.03;;;0.60;;
69152;SDS011;56261;51.580;4.578;2022-11-15T15:05:00;1.77;;;0.43;;
69152;SDS011;56261;51.580;4.578;2022-11-15T15:07:28;4.03;;;0.82;;
69152;SDS011;56261;51.580;4.578;2022-11-15T15:09:53;2.70;;;0.90;;
69152;SDS011;56261;51.580;4.578;2022-11-15T15:12:19;2.83;;;0.80;;
69152;SDS011;56261;51.580;4.578;2022-11-15T15:14:47;4.25;;;0.90;;
69152;SDS011;56261;51.580;4.578;2022-11-15T15:17:13;2.70;;;0.90;;
69152;SDS011;56261;51.580;4.578;2022-11-15T15:19:39;6.68;;;0.82;;
69152;SDS011;56261;51.580;4.578;2022-11-15T15:22:05;2.40;;;0.80;;
69152;SDS011;56261;51.580;4.578;2022-11-15T15:24:31;2.20;;;0.70;;
69152;SDS011;56261;51.580;4.578;2022-11-15T15:26:56;1.73;;;0.45;;
69152;SDS011;56261;51.580;4.578;2022-11-15T15:29:22;1.80;;;0.50;;
69152;SDS011;56261;51.580;4.578;2022-11-15T15:31:47;3.50;;;1.03;;
69152;SDS011;56261;51.580;4.578;2022-11-15T15:34:12;2.20;;;0.73;;
69152;SDS011;56261;51.580;4.578;2022-11-15T15:36:38;4.63;;;1.90;;
69152;SDS011;56261;51.580;4.578;2022-11-15T15:39:03;10.40;;;1.47;;
69152;SDS011;56261;51.580;4.578;2022-11-15T15:41:28;9.53;;;1.50;;
69152;SDS011;56261;51.580;4.578;2022-11-15T15:43:54;3.63;;;0.80;;
69152;SDS011;56261;51.580;4.578;2022-11-15T15:46:19;3.87;;;0.93;;
69152;SDS011;56261;51.580;4.578;2022-11-15T15:48:48;2.75;;;0.75;;
69152;SDS011;56261;51.580;4.578;2022-11-15T15:51:13;3.53;;;2.40;;
69152;SDS011;56261;51.580;4.578;2022-11-15T15:53:39;4.10;;;0.97;;
69152;SDS011;56261;51.580;4.578;2022-11-15T15:56:04;4.07;;;1.57;;
69152;SDS011;56261;51.580;4.578;2022-11-15T15:58:32;3.80;;;1.25;;
69152;SDS011;56261;51.580;4.578;2022-11-15T16:00:58;6.90;;;0.90;;
69152;SDS011;56261;51.580;4.578;2022-11-15T16:03:24;5.97;;;0.90;;
69152;SDS011;56261;51.580;4.578;2022-11-15T16:05:49;11.27;;;1.42;;
69152;SDS011;56261;51.580;4.578;2022-11-15T16:08:22;6.63;;;1.37;;
69152;SDS011;56261;51.580;4.578;2022-11-15T16:10:49;3.95;;;1.38;;
69152;SDS011;56261;51.580;4.578;2022-11-15T16:13:15;6.15;;;1.48;;
69152;SDS011;56261;51.580;4.578;2022-11-15T16:15:42;2.97;;;0.95;;
69152;SDS011;56261;51.580;4.578;2022-11-15T16:18:09;2.92;;;1.10;;
69152;SDS011;56261;51.580;4.578;2022-11-15T16:20:40;2.63;;;0.90;;
69152;SDS011;56261;51.580;4.578;2022-11-15T16:23:10;3.60;;;1.00;;
69152;SDS011;56261;51.580;4.578;2022-11-15T16:28:27;3.47;;;1.23;;
69152;SDS011;56261;51.580;4.578;2022-11-15T16:31:04;3.35;;;1.25;;
69152;SDS011;56261;51.580;4.578;2022-11-15T16:33:32;4.40;;;1.13;;
69152;SDS011;56261;51.580;4.578;2022-11-15T16:35:58;2.50;;;1.00;;
69152;SDS011;56261;51.580;4.578;2022-11-15T16:38:23;1.60;;;0.50;;
69152;SDS011;56261;51.580;4.578;2022-11-15T16:40:48;3.20;;;1.00;;
69152;SDS011;56261;51.580;4.578;2022-11-15T16:43:14;3.93;;;1.00;;
69152;SDS011;56261;51.580;4.578;2022-11-15T16:45:40;3.25;;;1.23;;
69152;SDS011;56261;51.580;4.578;2022-11-15T16:48:05;7.00;;;1.47;;
69152;SDS011;56261;51.580;4.578;2022-11-15T16:50:32;3.78;;;1.33;;
69152;SDS011;56261;51.580;4.578;2022-11-15T16:53:05;5.00;;;1.47;;
69152;SDS011;56261;51.580;4.578;2022-11-15T16:55:30;3.55;;;0.80;;
69152;SDS011;56261;51.580;4.578;2022-11-15T16:57:56;4.70;;;1.63;;
69152;SDS011;56261;51.580;4.578;2022-11-15T17:00:25;3.35;;;1.25;;
69152;SDS011;56261;51.580;4.578;2022-11-15T17:02:51;4.17;;;1.13;;
69152;SDS011;56261;51.580;4.578;2022-11-15T17:05:18;3.15;;;1.30;;
69152;SDS011;56261;51.580;4.578;2022-11-15T17:07:50;2.47;;;0.93;;